Time,TemperatureF,DewpointF,PressureIn,WindDirection,WindDirectionDegrees,WindSpeedMPH,WindSpeedGustMPH,Humidity,HourlyPrecipIn,Conditions,Clouds,dailyrainin,SoftwareType,DateUTC
2013-11-07 00:10:00,69.5,67.4,30.07,NNE,17,0.0,5.0,93,0.00,,,0.00,Weather View 32 v70,2013-11-07 05:10:00,
2013-11-07 00:19:00,69.5,67.4,30.06,NNE,33,0.0,5.0,93,0.00,,,0.00,Weather View 32 v70,2013-11-07 05:19:00,
2013-11-07 00:30:00,69.5,67.4,30.06,North,11,1.0,5.0,93,0.00,,,0.00,Weather View 32 v70,2013-11-07 05:30:00,
2013-11-07 00:37:00,69.5,67.4,30.06,North,11,1.0,5.0,93,0.00,,,0.00,Weather View 32 v70,2013-11-07 05:37:00,
2013-11-07 00:39:00,69.5,67.4,30.06,NNE,16,0.0,8.0,93,0.00,,,0.00,Weather View 32 v70,2013-11-07 05:39:00,
2013-11-07 00:49:00,69.4,67.3,30.06,North,5,3.0,8.0,93,0.00,,,0.00,Weather View 32 v70,2013-11-07 05:49:00,
2013-11-07 00:59:00,69.3,67.2,30.06,North,5,0.0,8.0,93,0.00,,,0.00,Weather View 32 v70,2013-11-07 05:59:00,
2013-11-07 01:09:00,69.3,67.2,30.06,North,11,0.0,8.0,93,0.00,,,0.00,Weather View 32 v70,2013-11-07 06:09:00,
2013-11-07 01:19:00,69.2,67.1,30.05,North,9,1.0,8.0,93,0.00,,,0.00,Weather View 32 v70,2013-11-07 06:19:00,
2013-11-07 01:29:00,69.2,67.1,30.05,North,9,0.0,8.0,93,0.00,,,0.00,Weather View 32 v70,2013-11-07 06:29:00,
2013-11-07 01:37:00,69.2,67.1,30.05,North,9,0.0,8.0,93,0.00,,,0.00,Weather View 32 v70,2013-11-07 06:37:00,
2013-11-07 01:39:00,69.2,67.1,30.05,North,9,0.0,5.0,93,0.00,,,0.00,Weather View 32 v70,2013-11-07 06:39:00,
2013-11-07 01:49:00,69.1,67.0,30.05,North,9,0.0,5.0,93,0.00,,,0.00,Weather View 32 v70,2013-11-07 06:49:00,
2013-11-07 01:59:00,69.0,66.9,30.04,North,9,0.0,3.0,93,0.00,,,0.00,Weather View 32 v70,2013-11-07 06:59:00,
2013-11-07 02:09:00,69.0,66.9,30.03,NNE,16,2.0,2.0,93,0.00,,,0.00,Weather View 32 v70,2013-11-07 07:09:00,
2013-11-07 02:19:00,68.9,66.8,30.03,NE,36,1.0,2.0,93,0.00,,,0.00,Weather View 32 v70,2013-11-07 07:19:00,
2013-11-07 02:29:00,68.9,66.8,30.03,NE,36,0.0,2.0,93,0.00,,,0.00,Weather View 32 v70,2013-11-07 07:29:00,
2013-11-07 02:38:00,68.9,66.8,30.03,NE,36,0.0,2.0,93,0.00,,,0.00,Weather View 32 v70,2013-11-07 07:38:00,
2013-11-07 02:39:00,68.8,67.0,30.03,NE,36,0.0,2.0,94,0.00,,,0.00,Weather View 32 v70,2013-11-07 07:39:00,
2013-11-07 02:49:00,68.8,67.0,30.03,NE,36,0.0,2.0,94,0.00,,,0.00,Weather View 32 v70,2013-11-07 07:49:00,
2013-11-07 02:59:00,68.7,66.9,30.02,NNE,26,0.0,3.0,94,0.00,,,0.00,Weather View 32 v70,2013-11-07 07:59:00,
2013-11-07 03:09:00,68.6,66.5,30.03,NNE,26,0.0,3.0,93,0.00,,,0.00,Weather View 32 v70,2013-11-07 08:09:00,
2013-11-07 03:19:00,68.5,66.4,30.02,North,360,0.0,3.0,93,0.00,,,0.00,Weather View 32 v70,2013-11-07 08:19:00,
2013-11-07 03:29:00,68.4,66.6,30.02,NNE,30,0.0,3.0,94,0.00,,,0.00,Weather View 32 v70,2013-11-07 08:29:00,
2013-11-07 03:39:00,68.4,66.6,30.02,NNE,30,0.0,3.0,94,0.00,,,0.00,Weather View 32 v70,2013-11-07 08:39:00,
2013-11-07 03:49:00,68.2,66.4,30.01,NNE,26,0.0,3.0,94,0.00,,,0.00,Weather View 32 v70,2013-11-07 08:49:00,
2013-11-07 03:59:00,68.2,66.4,30.01,NNE,22,2.0,3.0,94,0.00,,,0.00,Weather View 32 v70,2013-11-07 08:59:00,
2013-11-07 04:09:00,68.2,66.4,30.01,NNE,17,2.0,3.0,94,0.00,,,0.00,Weather View 32 v70,2013-11-07 09:09:00,
2013-11-07 04:19:00,68.1,66.6,30.01,NNE,17,0.0,3.0,95,0.00,,,0.00,Weather View 32 v70,2013-11-07 09:19:00,
2013-11-07 04:29:00,68.0,66.2,30.01,NNE,17,0.0,3.0,94,0.00,,,0.00,Weather View 32 v70,2013-11-07 09:29:00,
2013-11-07 04:39:00,68.0,66.2,30.01,NNE,17,0.0,3.0,94,0.00,,,0.00,Weather View 32 v70,2013-11-07 09:39:00,
2013-11-07 04:49:00,67.6,66.1,30.02,NNE,17,0.0,3.0,95,0.00,,,0.00,Weather View 32 v70,2013-11-07 09:49:00,
2013-11-07 04:59:00,67.5,66.0,30.02,North,360,0.0,3.0,95,0.00,,,0.00,Weather View 32 v70,2013-11-07 09:59:00,
2013-11-07 05:09:00,67.4,65.9,30.01,West,277,0.0,3.0,95,0.00,,,0.00,Weather View 32 v70,2013-11-07 10:09:00,
2013-11-07 05:19:00,67.5,66.3,30.01,West,277,0.0,3.0,96,0.00,,,0.00,Weather View 32 v70,2013-11-07 10:19:00,
2013-11-07 05:29:00,67.5,66.3,30.01,West,277,0.0,3.0,96,0.00,,,0.00,Weather View 32 v70,2013-11-07 10:29:00,
2013-11-07 05:40:00,67.5,66.3,30.01,West,277,0.0,3.0,96,0.00,,,0.00,Weather View 32 v70,2013-11-07 10:40:00,
2013-11-07 05:49:00,67.6,66.4,30.01,West,277,0.0,3.0,96,0.00,,,0.00,Weather View 32 v70,2013-11-07 10:49:00,
2013-11-07 05:59:00,67.6,66.4,30.01,West,269,0.0,3.0,96,0.00,,,0.00,Weather View 32 v70,2013-11-07 10:59:00,
2013-11-07 06:09:00,67.6,66.4,30.01,WSW,257,0.0,3.0,96,0.00,,,0.00,Weather View 32 v70,2013-11-07 11:09:00,
2013-11-07 06:19:00,67.6,66.4,30.02,NW,326,0.0,3.0,96,0.00,,,0.00,Weather View 32 v70,2013-11-07 11:19:00,
2013-11-07 06:29:00,67.5,66.3,30.02,WNW,289,1.0,4.0,96,0.00,,,0.00,Weather View 32 v70,2013-11-07 11:29:00,
2013-11-07 06:39:00,67.5,66.3,30.02,WNW,289,0.0,4.0,96,0.00,,,0.00,Weather View 32 v70,2013-11-07 11:39:00,
2013-11-07 06:40:00,67.5,66.3,30.02,WNW,289,0.0,4.0,96,0.00,,,0.00,Weather View 32 v70,2013-11-07 11:40:00,
2013-11-07 06:49:00,67.5,66.0,30.02,NNE,15,0.0,4.0,95,0.00,,,0.00,Weather View 32 v70,2013-11-07 11:49:00,
2013-11-07 06:59:00,67.5,66.0,30.02,NNE,15,0.0,4.0,95,0.00,,,0.00,Weather View 32 v70,2013-11-07 11:59:00,
2013-11-07 07:09:00,67.5,66.0,30.03,NNE,15,0.0,4.0,95,0.00,,,0.00,Weather View 32 v70,2013-11-07 12:09:00,
2013-11-07 07:20:00,67.5,66.0,30.03,North,5,0.0,4.0,95,0.00,,,0.00,Weather View 32 v70,2013-11-07 12:20:00,
2013-11-07 07:29:00,67.6,66.4,30.04,North,355,0.0,4.0,96,0.00,,,0.00,Weather View 32 v70,2013-11-07 12:29:00,
2013-11-07 07:39:00,67.6,66.1,30.04,NNW,337,0.0,4.0,95,0.00,,,0.00,Weather View 32 v70,2013-11-07 12:39:00,
2013-11-07 07:41:00,67.6,66.1,30.04,NNW,337,0.0,4.0,95,0.00,,,0.00,Weather View 32 v70,2013-11-07 12:41:00,
2013-11-07 07:49:00,67.6,66.1,30.04,West,272,1.0,4.0,95,0.00,,,0.00,Weather View 32 v70,2013-11-07 12:49:00,
2013-11-07 07:59:00,67.6,66.4,30.05,WNW,282,0.0,3.0,96,0.00,,,0.00,Weather View 32 v70,2013-11-07 12:59:00,
2013-11-07 08:09:00,67.6,66.1,30.05,West,271,0.0,4.0,95,0.00,,,0.00,Weather View 32 v70,2013-11-07 13:09:00,
2013-11-07 08:19:00,67.6,66.1,30.05,West,271,0.0,4.0,95,0.00,,,0.00,Weather View 32 v70,2013-11-07 13:19:00,
2013-11-07 08:30:00,67.8,66.3,30.05,West,271,0.0,4.0,95,0.00,,,0.00,Weather View 32 v70,2013-11-07 13:30:00,
2013-11-07 08:39:00,67.8,66.3,30.06,WSW,258,0.0,4.0,95,0.00,,,0.00,Weather View 32 v70,2013-11-07 13:39:00,
2013-11-07 08:42:00,67.8,66.3,30.06,WSW,258,0.0,4.0,95,0.00,,,0.00,Weather View 32 v70,2013-11-07 13:42:00,
2013-11-07 08:49:00,67.7,66.2,30.06,NE,36,1.0,4.0,95,0.00,,,0.00,Weather View 32 v70,2013-11-07 13:49:00,
2013-11-07 08:59:00,67.9,66.4,30.06,WNW,292,4.0,4.0,95,0.00,,,0.00,Weather View 32 v70,2013-11-07 13:59:00,
2013-11-07 09:09:00,67.9,66.4,30.06,WSW,241,0.0,4.0,95,0.00,,,0.00,Weather View 32 v70,2013-11-07 14:09:00,
2013-11-07 09:19:00,68.1,66.3,30.06,WSW,243,0.0,4.0,94,0.00,,,0.00,Weather View 32 v70,2013-11-07 14:19:00,
2013-11-07 09:29:00,68.2,66.4,30.06,WSW,243,0.0,4.0,94,0.00,,,0.00,Weather View 32 v70,2013-11-07 14:29:00,
2013-11-07 09:39:00,68.6,66.8,30.06,NNE,14,2.0,4.0,94,0.00,,,0.00,Weather View 32 v70,2013-11-07 14:39:00,
2013-11-07 09:43:00,68.6,66.8,30.06,NNE,14,2.0,4.0,94,0.00,,,0.00,Weather View 32 v70,2013-11-07 14:43:00,
2013-11-07 09:49:00,68.7,66.9,30.06,NNE,19,0.0,4.0,94,0.00,,,0.00,Weather View 32 v70,2013-11-07 14:49:00,
2013-11-07 09:59:00,69.1,67.0,30.06,NNE,19,2.0,4.0,93,0.00,,,0.00,Weather View 32 v70,2013-11-07 14:59:00,
2013-11-07 10:09:00,69.3,67.2,30.06,WNW,297,0.0,3.0,93,0.00,,,0.00,Weather View 32 v70,2013-11-07 15:09:00,
2013-11-07 10:19:00,69.7,66.9,30.06,WNW,285,2.0,3.0,91,0.00,,,0.00,Weather View 32 v70,2013-11-07 15:19:00,
2013-11-07 10:29:00,70.1,67.3,30.06,WNW,285,0.0,3.0,91,0.00,,,0.00,Weather View 32 v70,2013-11-07 15:29:00,
2013-11-07 10:39:00,70.6,67.8,30.06,NE,45,0.0,3.0,91,0.00,,,0.00,Weather View 32 v70,2013-11-07 15:39:00,
2013-11-07 10:49:00,70.8,67.7,30.05,East,98,0.0,3.0,90,0.00,,,0.00,Weather View 32 v70,2013-11-07 15:49:00,
2013-11-07 10:59:00,70.6,67.8,30.05,SE,134,0.0,3.0,91,0.00,,,0.00,Weather View 32 v70,2013-11-07 15:59:00,
2013-11-07 11:09:00,70.8,67.7,30.04,SE,143,2.0,4.0,90,0.00,,,0.00,Weather View 32 v70,2013-11-07 16:09:00,
2013-11-07 11:19:00,71.3,68.5,30.04,SE,142,2.0,4.0,91,0.00,,,0.00,Weather View 32 v70,2013-11-07 16:19:00,
2013-11-07 11:29:00,71.8,68.4,30.04,SE,139,0.0,4.0,89,0.00,,,0.00,Weather View 32 v70,2013-11-07 16:29:00,
2013-11-07 11:39:00,72.1,68.7,30.03,SE,140,2.0,4.0,89,0.00,,,0.00,Weather View 32 v70,2013-11-07 16:39:00,
2013-11-07 11:44:00,72.1,68.7,30.03,SE,140,2.0,4.0,89,0.00,,,0.00,Weather View 32 v70,2013-11-07 16:44:00,
2013-11-07 11:49:00,73.1,69.0,30.03,SE,140,0.0,4.0,87,0.00,,,0.00,Weather View 32 v70,2013-11-07 16:49:00,
2013-11-07 11:59:00,73.1,69.0,30.03,SE,140,1.0,4.0,87,0.00,,,0.00,Weather View 32 v70,2013-11-07 16:59:00,
2013-11-07 12:09:00,73.8,69.3,30.02,SE,140,0.0,4.0,86,0.00,,,0.00,Weather View 32 v70,2013-11-07 17:09:00,
2013-11-07 12:19:00,74.0,69.5,30.01,SE,139,2.0,3.0,86,0.00,,,0.00,Weather View 32 v70,2013-11-07 17:19:00,
2013-11-07 12:29:00,76.4,68.2,30.01,West,269,0.0,6.0,76,0.00,,,0.00,Weather View 32 v70,2013-11-07 17:29:00,
2013-11-07 12:39:00,76.8,66.6,30.00,NNE,17,4.0,7.0,71,0.00,,,0.00,Weather View 32 v70,2013-11-07 17:39:00,
2013-11-07 12:44:00,76.8,66.6,30.00,NNE,17,4.0,7.0,71,0.00,,,0.00,Weather View 32 v70,2013-11-07 17:44:00,
2013-11-07 12:49:00,77.6,66.6,30.00,West,276,0.0,7.0,69,0.00,,,0.00,Weather View 32 v70,2013-11-07 17:49:00,
2013-11-07 12:59:00,77.6,67.8,30.00,NNW,346,0.0,7.0,72,0.00,,,0.00,Weather View 32 v70,2013-11-07 17:59:00,
2013-11-07 13:09:00,78.2,67.6,29.99,West,269,0.0,7.0,70,0.00,,,0.00,Weather View 32 v70,2013-11-07 18:09:00,
2013-11-07 13:19:00,78.4,67.3,29.99,West,275,2.0,7.0,69,0.00,,,0.00,Weather View 32 v70,2013-11-07 18:19:00,
2013-11-07 13:29:00,78.6,67.5,29.99,West,277,0.0,7.0,69,0.00,,,0.00,Weather View 32 v70,2013-11-07 18:29:00,
2013-11-07 13:39:00,78.6,68.0,29.98,West,272,0.0,6.0,70,0.00,,,0.00,Weather View 32 v70,2013-11-07 18:39:00,
2013-11-07 13:45:00,78.6,68.0,29.98,West,272,0.0,6.0,70,0.00,,,0.00,Weather View 32 v70,2013-11-07 18:45:00,
2013-11-07 13:49:00,78.9,68.2,29.97,West,270,1.0,6.0,70,0.00,,,0.00,Weather View 32 v70,2013-11-07 18:49:00,
2013-11-07 13:59:00,78.9,68.7,29.97,NE,40,2.0,6.0,71,0.00,,,0.00,Weather View 32 v70,2013-11-07 18:59:00,
2013-11-07 14:09:00,79.0,67.9,29.97,WSW,250,0.0,8.0,69,0.00,,,0.00,Weather View 32 v70,2013-11-07 19:09:00,
2013-11-07 14:19:00,79.4,67.9,29.97,West,272,0.0,8.0,68,0.00,,,0.00,Weather View 32 v70,2013-11-07 19:19:00,
2013-11-07 14:29:00,79.5,68.8,29.96,WNW,290,2.0,8.0,70,0.00,,,0.00,Weather View 32 v70,2013-11-07 19:29:00,
2013-11-07 14:39:00,80.0,67.1,29.96,West,279,3.0,8.0,65,0.00,,,0.00,Weather View 32 v70,2013-11-07 19:39:00,
2013-11-07 14:46:00,80.0,67.1,29.96,West,279,3.0,8.0,65,0.00,,,0.00,Weather View 32 v70,2013-11-07 19:46:00,
2013-11-07 14:49:00,80.6,67.2,29.96,NNW,340,1.0,8.0,64,0.00,,,0.00,Weather View 32 v70,2013-11-07 19:49:00,
2013-11-07 14:59:00,80.2,66.9,29.96,NNW,344,0.0,8.0,64,0.00,,,0.00,Weather View 32 v70,2013-11-07 19:59:00,
2013-11-07 15:09:00,80.1,66.8,29.96,WNW,283,0.0,6.0,64,0.00,,,0.00,Weather View 32 v70,2013-11-07 20:09:00,
2013-11-07 15:19:00,80.3,65.6,29.96,WNW,294,2.0,6.0,61,0.00,,,0.00,Weather View 32 v70,2013-11-07 20:19:00,
2013-11-07 15:29:00,79.8,66.0,29.96,NNE,24,1.0,6.0,63,0.00,,,0.00,Weather View 32 v70,2013-11-07 20:29:00,
2013-11-07 15:39:00,79.6,64.4,29.96,North,5,4.0,8.0,60,0.00,,,0.00,Weather View 32 v70,2013-11-07 20:39:00,
2013-11-07 15:46:00,79.6,64.4,29.96,North,5,4.0,8.0,60,0.00,,,0.00,Weather View 32 v70,2013-11-07 20:46:00,
2013-11-07 15:49:00,79.6,65.4,29.96,NE,35,2.0,8.0,62,0.00,,,0.00,Weather View 32 v70,2013-11-07 20:49:00,
2013-11-07 15:59:00,79.1,66.3,29.97,WNW,288,2.0,8.0,65,0.00,,,0.00,Weather View 32 v70,2013-11-07 20:59:00,
2013-11-07 16:09:00,78.5,66.6,29.97,NNW,329,0.0,8.0,67,0.00,,,0.00,Weather View 32 v70,2013-11-07 21:09:00,
2013-11-07 16:19:00,78.5,67.0,29.97,North,11,0.0,8.0,68,0.00,,,0.00,Weather View 32 v70,2013-11-07 21:19:00,
2013-11-07 16:29:00,78.5,67.0,29.97,NNW,333,0.0,8.0,68,0.00,,,0.00,Weather View 32 v70,2013-11-07 21:29:00,
2013-11-07 16:39:00,77.9,68.1,29.97,North,355,0.0,6.0,72,0.00,,,0.00,Weather View 32 v70,2013-11-07 21:39:00,
2013-11-07 16:47:00,77.9,68.1,29.97,North,355,0.0,6.0,72,0.00,,,0.00,Weather View 32 v70,2013-11-07 21:47:00,
2013-11-07 16:49:00,76.9,68.3,29.97,North,355,0.0,6.0,75,0.00,,,0.00,Weather View 32 v70,2013-11-07 21:49:00,
2013-11-07 16:59:00,76.7,68.5,29.97,North,355,0.0,5.0,76,0.00,,,0.00,Weather View 32 v70,2013-11-07 21:59:00,
2013-11-07 17:09:00,75.7,68.3,29.97,North,355,0.0,5.0,78,0.00,,,0.00,Weather View 32 v70,2013-11-07 22:09:00,
2013-11-07 17:19:00,74.8,68.2,29.97,North,355,0.0,4.0,80,0.00,,,0.00,Weather View 32 v70,2013-11-07 22:19:00,
2013-11-07 17:29:00,74.1,68.2,29.97,North,355,0.0,1.0,82,0.00,,,0.00,Weather View 32 v70,2013-11-07 22:29:00,
2013-11-07 17:39:00,73.4,68.2,29.97,North,355,0.0,0.0,84,0.00,,,0.00,Weather View 32 v70,2013-11-07 22:39:00,
2013-11-07 17:47:00,73.4,68.2,29.97,North,355,0.0,0.0,84,0.00,,,0.00,Weather View 32 v70,2013-11-07 22:47:00,
2013-11-07 17:49:00,72.6,68.2,29.98,North,355,0.0,0.0,86,0.00,,,0.00,Weather View 32 v70,2013-11-07 22:49:00,
2013-11-07 17:59:00,71.9,67.8,29.98,North,355,0.0,0.0,87,0.00,,,0.00,Weather View 32 v70,2013-11-07 22:59:00,
2013-11-07 18:09:00,71.2,67.8,29.98,North,355,0.0,0.0,89,0.00,,,0.00,Weather View 32 v70,2013-11-07 23:09:00,
2013-11-07 18:19:00,70.8,67.7,29.98,North,355,0.0,0.0,90,0.00,,,0.00,Weather View 32 v70,2013-11-07 23:19:00,
2013-11-07 18:29:00,70.3,67.2,29.98,North,355,0.0,0.0,90,0.00,,,0.00,Weather View 32 v70,2013-11-07 23:29:00,
2013-11-07 18:39:00,69.8,67.0,29.99,North,355,0.0,0.0,91,0.00,,,0.00,Weather View 32 v70,2013-11-07 23:39:00,
2013-11-07 18:48:00,69.8,67.0,29.99,North,355,0.0,0.0,91,0.00,,,0.00,Weather View 32 v70,2013-11-07 23:48:00,
2013-11-07 18:49:00,69.3,66.9,29.99,North,355,0.0,0.0,92,0.00,,,0.00,Weather View 32 v70,2013-11-07 23:49:00,
2013-11-07 18:59:00,68.8,66.4,29.99,North,355,0.0,0.0,92,0.00,,,0.00,Weather View 32 v70,2013-11-07 23:59:00,
2013-11-07 19:09:00,68.6,66.2,29.99,North,355,0.0,0.0,92,0.00,,,0.00,Weather View 32 v70,2013-11-08 00:09:00,
2013-11-07 19:19:00,68.2,65.8,29.99,North,355,0.0,0.0,92,0.00,,,0.00,Weather View 32 v70,2013-11-08 00:19:00,
2013-11-07 19:29:00,67.9,65.8,29.99,North,355,0.0,0.0,93,0.00,,,0.00,Weather View 32 v70,2013-11-08 00:29:00,
2013-11-07 19:39:00,67.7,65.6,29.99,North,355,0.0,0.0,93,0.00,,,0.00,Weather View 32 v70,2013-11-08 00:39:00,
2013-11-07 19:49:00,67.7,65.6,29.99,North,355,0.0,0.0,93,0.00,,,0.00,Weather View 32 v70,2013-11-08 00:49:00,
2013-11-07 19:50:00,67.3,65.2,30.00,North,355,0.0,0.0,93,0.00,,,0.00,Weather View 32 v70,2013-11-08 00:50:00,
2013-11-07 20:00:00,67.2,65.1,30.00,North,355,0.0,0.0,93,0.00,,,0.00,Weather View 32 v70,2013-11-08 01:00:00,
2013-11-07 20:09:00,67.0,64.9,30.00,North,355,0.0,0.0,93,0.00,,,0.00,Weather View 32 v70,2013-11-08 01:09:00,
2013-11-07 20:19:00,66.6,64.5,30.01,North,355,0.0,0.0,93,0.00,,,0.00,Weather View 32 v70,2013-11-08 01:19:00,
2013-11-07 20:29:00,66.4,64.6,30.01,North,355,0.0,0.0,94,0.00,,,0.00,Weather View 32 v70,2013-11-08 01:29:00,
2013-11-07 20:39:00,65.9,64.1,30.01,North,355,0.0,0.0,94,0.00,,,0.00,Weather View 32 v70,2013-11-08 01:39:00,
2013-11-07 20:50:00,65.6,63.8,30.01,North,355,0.0,0.0,94,0.00,,,0.00,Weather View 32 v70,2013-11-08 01:50:00,
2013-11-07 20:59:00,65.6,63.8,30.01,North,355,0.0,0.0,94,0.00,,,0.00,Weather View 32 v70,2013-11-08 01:59:00,
2013-11-07 21:09:00,65.5,63.7,30.01,North,355,0.0,0.0,94,0.00,,,0.00,Weather View 32 v70,2013-11-08 02:09:00,
2013-11-07 21:19:00,65.3,63.5,30.01,North,355,0.0,0.0,94,0.00,,,0.00,Weather View 32 v70,2013-11-08 02:19:00,
2013-11-07 21:29:00,66.3,64.5,30.01,WNW,290,0.0,1.0,94,0.00,,,0.00,Weather View 32 v70,2013-11-08 02:29:00,
2013-11-07 21:39:00,67.0,64.9,30.01,WNW,290,0.0,1.0,93,0.00,,,0.00,Weather View 32 v70,2013-11-08 02:39:00,
2013-11-07 21:49:00,66.7,64.6,30.01,WNW,290,0.0,1.0,93,0.00,,,0.00,Weather View 32 v70,2013-11-08 02:49:00,
2013-11-07 21:50:00,66.7,64.6,30.01,WNW,290,0.0,1.0,93,0.00,,,0.00,Weather View 32 v70,2013-11-08 02:50:00,
2013-11-07 21:59:00,66.4,64.3,30.01,WNW,290,0.0,1.0,93,0.00,,,0.00,Weather View 32 v70,2013-11-08 02:59:00,
2013-11-07 22:09:00,66.2,64.4,30.01,WNW,290,0.0,1.0,94,0.00,,,0.00,Weather View 32 v70,2013-11-08 03:09:00,
2013-11-07 22:19:00,66.1,64.3,30.01,WNW,290,0.0,1.0,94,0.00,,,0.00,Weather View 32 v70,2013-11-08 03:19:00,
2013-11-07 22:30:00,66.0,64.2,30.01,WNW,290,0.0,1.0,94,0.00,,,0.00,Weather View 32 v70,2013-11-08 03:30:00,
2013-11-07 22:39:00,66.1,64.6,30.02,WNW,290,0.0,1.0,95,0.00,,,0.00,Weather View 32 v70,2013-11-08 03:39:00,
2013-11-07 22:49:00,66.5,65.0,30.02,WNW,290,0.0,1.0,95,0.00,,,0.00,Weather View 32 v70,2013-11-08 03:49:00,
2013-11-07 22:51:00,66.5,65.0,30.02,WNW,290,0.0,1.0,95,0.00,,,0.00,Weather View 32 v70,2013-11-08 03:51:00,
2013-11-07 22:59:00,66.8,65.3,30.02,WNW,290,0.0,1.0,95,0.00,,,0.00,Weather View 32 v70,2013-11-08 03:59:00,
2013-11-07 23:09:00,67.1,65.3,30.01,WNW,290,0.0,1.0,94,0.00,,,0.00,Weather View 32 v70,2013-11-08 04:09:00,
2013-11-07 23:19:00,67.3,65.5,30.01,NW,304,0.0,2.0,94,0.00,,,0.00,Weather View 32 v70,2013-11-08 04:19:00,
2013-11-07 23:29:00,67.6,65.8,30.01,West,267,0.0,2.0,94,0.00,,,0.00,Weather View 32 v70,2013-11-08 04:29:00,
2013-11-07 23:39:00,67.9,65.8,30.02,West,263,3.0,3.0,93,0.00,,,0.00,Weather View 32 v70,2013-11-08 04:39:00,
2013-11-07 23:49:00,68.2,65.8,30.02,West,271,0.0,3.0,92,0.00,,,0.00,Weather View 32 v70,2013-11-08 04:49:00,
2013-11-07 23:51:00,68.2,65.8,30.02,West,271,0.0,3.0,92,0.00,,,0.00,Weather View 32 v70,2013-11-08 04:51:00,
2013-11-07 23:59:00,68.4,65.7,30.02,West,275,0.0,4.0,91,0.00,,,0.00,Weather View 32 v70,2013-11-08 04:59:00,